»·PEaware :: N19947 KSNA-KSNA

N19947 :: KSNA-KSNA

FLIGHT INFORMATION

Flight Status: Arrived
Operator: Privately registered:
United States
More flights under this callsign
Pilot: Adam A. (5112)
Aircraft: CESSNA 172 SKYHAWK
(C172)
More flights by this aircraft type
Origin: KSNA John Wayne-Orange Co
United States
Destination: KSNA John Wayne-Orange Co
United States
More flights between these airports :: More routes between these airports
Route: +SLI
File this flight plan on PilotEdge
Remarks:
Altitude:
(Current/Filed)
4,000ft
Speed:
(Current/Filed)
120kts
Departed: 04-Feb-16 06:21 PM
Arrived: 04-Feb-16 06:57 PM
Distance/Time
Traveled:
0nm/0:35
Distance/Time
To Go:
Arrived

Flight Plot

Page will automatically refresh every two minutes.


Map Options




Map Legend


Flown Route
Filed Route
Departure Airport
Arrival Airport
Navaid (VOR, NDB)
Fix

Horizontal Profiles

Position Reports

Time Latitude Longitude Heading Altitude Ground
Speed
04-Feb-16 17:50 33.672488 -117.866881 210 59ft 0kts
04-Feb-16 17:51 33.672488 -117.866881 210 59ft 0kts
04-Feb-16 17:52 33.672488 -117.866881 210 59ft 0kts
04-Feb-16 17:53 33.672488 -117.866881 210 59ft 0kts
04-Feb-16 17:54 33.672488 -117.866881 210 59ft 0kts
04-Feb-16 17:55 33.672488 -117.866881 210 59ft 0kts
04-Feb-16 17:56 33.672488 -117.866881 210 59ft 0kts
04-Feb-16 17:57 33.672488 -117.866881 210 59ft 0kts
04-Feb-16 17:58 33.672488 -117.866881 210 59ft 0kts
04-Feb-16 17:59 33.672488 -117.866881 210 59ft 0kts
04-Feb-16 18:00 33.672488 -117.866881 210 59ft 0kts
04-Feb-16 18:01 33.672488 -117.866881 210 59ft 0kts
04-Feb-16 18:02 33.672488 -117.866881 210 59ft 0kts
04-Feb-16 18:03 33.672488 -117.866881 210 59ft 0kts
04-Feb-16 18:04 33.672557 -117.867172 302 59ft 0kts
04-Feb-16 18:05 33.672557 -117.867172 302 59ft 0kts
04-Feb-16 18:06 33.672557 -117.867172 302 59ft 0kts
04-Feb-16 18:07 33.672557 -117.867172 302 59ft 0kts
04-Feb-16 18:08 33.672557 -117.867172 302 59ft 0kts
04-Feb-16 18:09 33.673392 -117.867605 36 59ft 7kts
04-Feb-16 18:10 33.675479 -117.866228 27 59ft 12kts
04-Feb-16 18:11 33.678050 -117.864590 24 59ft 7kts
04-Feb-16 18:12 33.680045 -117.863666 296 59ft 0kts
04-Feb-16 18:13 33.680045 -117.863666 296 59ft 0kts
04-Feb-16 18:14 33.680161 -117.864123 237 59ft 6kts
04-Feb-16 18:15 33.666773 -117.873946 217 582ft 78kts
04-Feb-16 18:16 33.652496 -117.893252 231 1542ft 80kts
04-Feb-16 18:17 33.638138 -117.914186 233 2474ft 79kts
04-Feb-16 18:18 33.625255 -117.931433 231 3046ft 95kts
04-Feb-16 18:19 33.610653 -117.963915 281 3477ft 93kts
04-Feb-16 18:20 33.613291 -117.970539 308 3594ft 93kts
04-Feb-16 18:21 33.639548 -117.985874 333 4045ft 101kts
04-Feb-16 18:22 33.665235 -117.999341 332 4017ft 110kts
04-Feb-16 18:23 33.686604 -118.011228 333 3957ft 110kts
04-Feb-16 18:24 33.711400 -118.022943 336 3939ft 108kts
04-Feb-16 18:25 33.735229 -118.034308 335 4005ft 106kts
04-Feb-16 18:26 33.759309 -118.045310 338 4000ft 107kts
04-Feb-16 18:27 33.785343 -118.049814 34 3925ft 117kts
04-Feb-16 18:28 33.798193 -118.015969 60 4020ft 113kts
04-Feb-16 18:29 33.812235 -117.983250 61 4085ft 114kts
04-Feb-16 18:30 33.825872 -117.950345 61 4116ft 115kts
04-Feb-16 18:31 33.838895 -117.917662 60 4001ft 121kts
04-Feb-16 18:32 33.853797 -117.883774 59 3949ft 118kts
04-Feb-16 18:33 33.868702 -117.848656 60 3909ft 116kts
04-Feb-16 18:34 33.882362 -117.815855 61 3970ft 111kts
04-Feb-16 18:35 33.896368 -117.783266 60 3979ft 110kts
04-Feb-16 18:36 33.909717 -117.752033 60 4040ft 109kts
04-Feb-16 18:37 33.929251 -117.730848 21 4038ft 105kts
04-Feb-16 18:38 33.952060 -117.718363 32 4012ft 108kts
04-Feb-16 18:39 33.971323 -117.732514 257 3667ft 119kts
04-Feb-16 18:40 33.943971 -117.746633 177 3576ft 113kts
04-Feb-16 18:41 33.920048 -117.727021 141 3653ft 108kts
04-Feb-16 18:42 33.891063 -117.734141 192 3633ft 112kts
04-Feb-16 18:43 33.863502 -117.750144 205 3502ft 109kts
04-Feb-16 18:44 33.837090 -117.765635 209 3274ft 108kts
04-Feb-16 18:45 33.810956 -117.783758 202 2923ft 106kts
04-Feb-16 18:46 33.784331 -117.799594 210 2352ft 107kts
04-Feb-16 18:47 33.758743 -117.816736 207 1821ft 104kts
04-Feb-16 18:48 33.733017 -117.832440 203 1263ft 103kts
04-Feb-16 18:49 33.709521 -117.848470 210 683ft 79kts
04-Feb-16 18:50 33.690272 -117.859301 211 223ft 78kts
04-Feb-16 18:51 33.678100 -117.867295 206 59ft 21kts
04-Feb-16 18:52 33.677345 -117.866628 116 59ft 0kts
04-Feb-16 18:53 33.677344 -117.866627 116 59ft 0kts
04-Feb-16 18:54 33.677316 -117.866564 122 59ft 1kts
04-Feb-16 18:55 33.675311 -117.865708 207 59ft 14kts
04-Feb-16 18:56 33.672137 -117.866882 108 59ft 9kts
04-Feb-16 18:57 33.672295 -117.866620 320 59ft 0kts

Navigation Log

Ident Type
Flight plan parsing failed, navigation log unavailable